createdAt,value
2022-10-24T00:00:02.656Z,13
2022-10-24T00:20:02.321Z,13
2022-10-24T00:40:02.756Z,13
2022-10-24T01:00:03.118Z,12.8
2022-10-24T01:20:02.748Z,12.6
2022-10-24T01:40:03.139Z,12.8
2022-10-24T02:00:02.528Z,12.6
2022-10-24T02:20:02.404Z,12.4
2022-10-24T02:40:02.809Z,12.2
2022-10-24T03:00:02.082Z,11.9
2022-10-24T03:20:02.780Z,12
2022-10-24T03:40:02.345Z,11.7
2022-10-24T04:00:02.835Z,11.4
2022-10-24T04:20:02.163Z,11.2
2022-10-24T04:40:02.563Z,11
2022-10-24T05:00:03.867Z,10.9
2022-10-24T05:20:02.916Z,10.8
2022-10-24T05:40:02.511Z,11
2022-10-24T06:00:02.765Z,11.3
2022-10-24T06:20:03.048Z,11.4
2022-10-24T06:40:02.403Z,11.6
2022-10-24T07:00:02.707Z,11.8
2022-10-24T07:20:02.238Z,12.1
2022-10-24T07:40:02.596Z,12.5
2022-10-24T08:00:02.834Z,12.9
2022-10-24T08:20:02.366Z,13.4
2022-10-24T08:40:02.709Z,14
2022-10-24T09:00:03.051Z,14.5
2022-10-24T09:20:02.519Z,15.3
2022-10-24T09:40:02.833Z,15.9
2022-10-24T10:00:02.098Z,16.3
2022-10-24T10:20:02.499Z,16.7
2022-10-24T10:40:03.007Z,17
2022-10-24T11:00:02.269Z,17
2022-10-24T11:20:02.644Z,17
2022-10-24T11:40:03.080Z,17.2
2022-10-24T12:00:02.718Z,17.2
2022-10-24T12:20:02.309Z,17.3
2022-10-24T12:40:02.799Z,17.3
2022-10-24T13:00:02.106Z,17.5
2022-10-24T13:20:02.820Z,17.6
2022-10-24T13:40:03.748Z,17.7
2022-10-24T14:00:03.608Z,17.7
2022-10-24T14:20:04.328Z,17.5
2022-10-24T14:40:04.347Z,17.3
2022-10-24T15:00:04.282Z,17.1
2022-10-24T15:20:03.851Z,17
2022-10-24T15:40:03.224Z,16.7
2022-10-24T16:00:03.676Z,16.4
2022-10-24T16:20:02.120Z,16.1
2022-10-24T16:40:02.526Z,16
2022-10-24T17:00:03.197Z,15.8
2022-10-24T17:20:02.631Z,15.6
2022-10-24T17:40:02.924Z,15.5
2022-10-24T18:00:02.217Z,15.4
2022-10-24T18:20:02.970Z,15.2
2022-10-24T18:40:02.222Z,15.1
2022-10-24T19:00:02.654Z,14.9
2022-10-24T19:20:02.404Z,14.8
2022-10-24T19:40:02.930Z,14.8
2022-10-24T20:00:02.316Z,14.7
2022-10-24T20:20:02.808Z,14.7
2022-10-24T20:40:02.062Z,14.6
2022-10-24T21:00:02.594Z,14.4
2022-10-24T21:20:02.605Z,14.3
2022-10-24T21:40:03.051Z,14.1
2022-10-24T22:00:02.453Z,14
2022-10-24T22:20:02.996Z,13.9
2022-10-24T22:40:02.454Z,13.7
2022-10-24T23:00:02.935Z,13.7
2022-10-24T23:20:02.487Z,13.7
2022-10-24T23:40:02.627Z,13.6
